createdAt,value
2023-01-18T00:01:19.249Z,0.20
2023-01-18T00:03:46.908Z,0.20
2023-01-18T00:06:14.621Z,0.20
2023-01-18T00:08:42.579Z,0.20
2023-01-18T00:11:12.878Z,0.10
2023-01-18T00:13:40.828Z,0.10
2023-01-18T00:16:12.253Z,0.00
2023-01-18T00:18:39.995Z,0.00
2023-01-18T00:21:11.173Z,0.00
2023-01-18T00:23:39.627Z,0.00
2023-01-18T00:26:09.546Z,-0.10
2023-01-18T00:28:37.985Z,-0.10
2023-01-18T00:31:17.217Z,-0.10
2023-01-18T00:33:49.620Z,-0.10
2023-01-18T00:36:18.092Z,-0.10
2023-01-18T00:38:51.672Z,-0.10
2023-01-18T00:41:20.066Z,-0.10
2023-01-18T00:43:47.537Z,-0.10
2023-01-18T00:46:17.743Z,-0.10
2023-01-18T00:48:45.294Z,-0.10
2023-01-18T00:51:15.428Z,-0.10
2023-01-18T00:53:46.578Z,-0.10
2023-01-18T00:56:22.856Z,-0.20
2023-01-18T00:58:50.517Z,-0.20
2023-01-18T01:01:18.270Z,-0.10
2023-01-18T01:04:04.328Z,-0.10
2023-01-18T01:06:45.398Z,-0.20
2023-01-18T01:09:17.766Z,-0.10
2023-01-18T01:12:04.433Z,-0.10
2023-01-18T01:14:52.506Z,-0.20
2023-01-18T01:17:38.622Z,-0.20
2023-01-18T01:20:26.463Z,-0.20
2023-01-18T01:23:12.597Z,-0.20
2023-01-18T01:25:58.880Z,-0.30
2023-01-18T01:28:26.634Z,-0.30
2023-01-18T01:31:00.818Z,-0.30
2023-01-18T01:33:30.999Z,-0.20
2023-01-18T01:35:59.880Z,-0.20
2023-01-18T01:38:28.733Z,-0.20
2023-01-18T01:40:58.130Z,-0.20
2023-01-18T01:43:45.097Z,-0.30
2023-01-18T01:46:19.717Z,-0.20
2023-01-18T01:48:48.936Z,-0.30
2023-01-18T01:51:19.763Z,-0.30
2023-01-18T01:53:49.222Z,-0.30
2023-01-18T01:56:19.354Z,-0.30
2023-01-18T01:58:49.979Z,-0.30
2023-01-18T02:01:17.648Z,-0.30
2023-01-18T02:03:45.566Z,-0.30
2023-01-18T02:06:31.560Z,-0.40
2023-01-18T02:09:08.047Z,-0.30
2023-01-18T02:11:36.181Z,-0.30
2023-01-18T02:14:07.938Z,-0.30
2023-01-18T02:16:47.361Z,-0.30
2023-01-18T02:19:42.675Z,-0.40
2023-01-18T02:22:21.821Z,-0.30
2023-01-18T02:25:07.663Z,-0.30
2023-01-18T02:28:11.672Z,-0.40
2023-01-18T02:30:49.229Z,-0.30
2023-01-18T02:33:26.709Z,-0.30
2023-01-18T02:35:57.312Z,-0.30
2023-01-18T02:38:41.673Z,-0.30
2023-01-18T02:41:22.066Z,-0.30
2023-01-18T02:44:13.418Z,-0.30
2023-01-18T02:46:41.358Z,-0.30
2023-01-18T02:49:12.382Z,-0.30
2023-01-18T02:51:39.840Z,-0.40
2023-01-18T02:54:09.839Z,-0.40
2023-01-18T02:56:49.066Z,-0.40
2023-01-18T02:59:19.149Z,-0.40
2023-01-18T03:01:56.178Z,-0.40
2023-01-18T03:04:29.067Z,-0.40
2023-01-18T03:07:13.543Z,-0.40
2023-01-18T03:09:42.349Z,-0.40
2023-01-18T03:12:26.320Z,-0.30
2023-01-18T03:15:13.076Z,-0.40
2023-01-18T03:18:07.431Z,-0.30
2023-01-18T03:20:40.874Z,-0.30
2023-01-18T03:23:38.686Z,-0.30
2023-01-18T03:26:09.264Z,-0.40
2023-01-18T03:29:04.229Z,-0.40
2023-01-18T03:32:09.861Z,-0.50
2023-01-18T03:34:48.967Z,-0.40
2023-01-18T03:37:31.472Z,-0.50
2023-01-18T03:40:09.088Z,-0.50
2023-01-18T03:42:53.380Z,-0.50
2023-01-18T03:45:33.349Z,-0.50
2023-01-18T03:48:02.567Z,-0.50
2023-01-18T03:50:45.595Z,-0.50
2023-01-18T03:53:28.887Z,-0.50
2023-01-18T03:56:02.118Z,-0.50
2023-01-18T03:58:36.442Z,-0.50
2023-01-18T04:01:04.719Z,-0.50
2023-01-18T04:03:33.884Z,-0.50
2023-01-18T04:06:04.729Z,-0.60
2023-01-18T04:08:32.173Z,-0.50
2023-01-18T04:10:59.566Z,-0.50
2023-01-18T04:13:26.956Z,-0.50
2023-01-18T04:15:54.475Z,-0.50
2023-01-18T04:18:21.872Z,-0.50
2023-01-18T04:20:49.283Z,-0.50
2023-01-18T04:23:16.726Z,-0.50
2023-01-18T04:25:45.841Z,-0.50
2023-01-18T04:28:13.149Z,-0.50
2023-01-18T04:30:40.549Z,-0.50
2023-01-18T04:33:07.936Z,-0.40
2023-01-18T04:35:36.328Z,-0.50
2023-01-18T04:38:03.999Z,-0.40
2023-01-18T04:40:31.361Z,-0.40
2023-01-18T04:42:59.069Z,-0.40
2023-01-18T04:45:26.728Z,-0.30
2023-01-18T04:47:54.051Z,-0.30
2023-01-18T04:50:21.409Z,-0.30
2023-01-18T04:52:48.808Z,-0.30
2023-01-18T04:55:16.189Z,-0.30
2023-01-18T04:57:45.148Z,-0.30
2023-01-18T05:00:17.373Z,-0.40
2023-01-18T05:02:44.717Z,-0.40
2023-01-18T05:05:12.054Z,-0.30
2023-01-18T05:07:39.482Z,-0.30
2023-01-18T05:10:07.173Z,-0.30
2023-01-18T05:12:34.543Z,-0.30
2023-01-18T05:15:01.964Z,-0.40
2023-01-18T05:17:30.447Z,-0.40
2023-01-18T05:19:57.856Z,-0.40
2023-01-18T05:22:25.638Z,-0.40
2023-01-18T05:24:53.683Z,-0.30
2023-01-18T05:27:21.036Z,-0.30
2023-01-18T05:29:48.888Z,-0.30
2023-01-18T05:32:19.088Z,-0.40
2023-01-18T05:34:46.423Z,-0.40
2023-01-18T05:37:13.779Z,-0.30
2023-01-18T05:39:41.176Z,-0.30
2023-01-18T05:42:08.575Z,-0.40
2023-01-18T05:44:35.902Z,-0.40
2023-01-18T05:47:03.288Z,-0.40
2023-01-18T05:49:30.656Z,-0.40
2023-01-18T05:51:58.111Z,-0.40
2023-01-18T05:54:25.489Z,-0.40
2023-01-18T05:56:52.862Z,-0.40
2023-01-18T05:59:20.255Z,-0.40
2023-01-18T06:01:47.684Z,-0.40
2023-01-18T06:04:15.157Z,-0.40
2023-01-18T06:06:42.492Z,-0.40
2023-01-18T06:09:09.880Z,-0.40
2023-01-18T06:11:37.266Z,-0.40
2023-01-18T06:14:04.611Z,-0.40
2023-01-18T06:16:32.020Z,-0.40
2023-01-18T06:18:59.407Z,-0.40
2023-01-18T06:21:26.902Z,-0.40
2023-01-18T06:23:54.667Z,-0.40
2023-01-18T06:26:23.841Z,-0.40
2023-01-18T06:28:51.238Z,-0.30
2023-01-18T06:31:18.587Z,-0.30
2023-01-18T06:33:45.995Z,-0.30
2023-01-18T06:36:13.367Z,-0.30
2023-01-18T06:38:41.484Z,-0.20
2023-01-18T06:41:09.319Z,-0.20
2023-01-18T06:43:36.673Z,-0.30
2023-01-18T06:46:07.712Z,-0.20
2023-01-18T06:48:35.297Z,-0.10
2023-01-18T06:51:02.636Z,-0.20
2023-01-18T06:53:30.617Z,-0.20
2023-01-18T06:56:01.790Z,-0.20
2023-01-18T06:58:32.838Z,-0.30
2023-01-18T07:01:00.911Z,-0.30
2023-01-18T07:03:29.840Z,-0.20
2023-01-18T07:05:58.869Z,-0.20
2023-01-18T07:08:27.184Z,-0.20
2023-01-18T07:10:55.007Z,-0.20
2023-01-18T07:13:22.629Z,-0.30
2023-01-18T07:16:00.840Z,-0.30
2023-01-18T07:18:30.172Z,-0.30
2023-01-18T07:21:01.792Z,-0.30
2023-01-18T07:23:30.792Z,-0.30
2023-01-18T07:26:03.041Z,-0.30
2023-01-18T07:28:31.618Z,-0.30
2023-01-18T07:30:59.944Z,-0.30
2023-01-18T07:33:28.219Z,-0.30
2023-01-18T07:35:57.392Z,-0.30
2023-01-18T07:38:25.510Z,-0.30
2023-01-18T07:40:59.044Z,-0.20
2023-01-18T07:43:26.432Z,-0.20
2023-01-18T07:45:54.798Z,-0.30
2023-01-18T07:48:23.537Z,-0.20
2023-01-18T07:50:59.306Z,-0.20
2023-01-18T07:53:28.089Z,-0.10
2023-01-18T07:56:00.010Z,-0.20
2023-01-18T07:58:28.099Z,-0.20
2023-01-18T08:00:55.822Z,-0.10
2023-01-18T08:03:23.223Z,-0.10
2023-01-18T08:05:50.609Z,-0.10
2023-01-18T08:08:18.638Z,-0.10
2023-01-18T08:10:46.095Z,-0.20
2023-01-18T08:13:13.504Z,-0.20
2023-01-18T08:15:41.120Z,-0.10
2023-01-18T08:18:08.996Z,-0.20
2023-01-18T08:20:36.403Z,-0.10
2023-01-18T08:23:03.996Z,-0.20
2023-01-18T08:25:33.644Z,-0.10
2023-01-18T08:28:02.682Z,-0.10
2023-01-18T08:30:37.118Z,-0.20
2023-01-18T08:33:05.222Z,-0.10
2023-01-18T08:35:41.031Z,-0.10
2023-01-18T08:38:09.644Z,-0.10
2023-01-18T08:40:37.691Z,0.00
2023-01-18T08:43:05.731Z,0.00
2023-01-18T08:45:35.007Z,0.00
2023-01-18T08:48:08.023Z,0.00
2023-01-18T08:50:36.381Z,0.00
2023-01-18T08:53:04.288Z,0.00
2023-01-18T08:55:31.802Z,0.10
2023-01-18T08:57:59.282Z,0.10
2023-01-18T09:00:30.711Z,0.10
2023-01-18T09:02:59.211Z,0.10
2023-01-18T09:05:28.391Z,0.10
2023-01-18T09:07:56.463Z,0.10
2023-01-18T09:10:23.885Z,0.10
2023-01-18T09:12:53.594Z,0.10
2023-01-18T09:15:21.432Z,0.20
2023-01-18T09:17:49.933Z,0.20
2023-01-18T09:20:19.081Z,0.30
2023-01-18T09:22:48.051Z,0.40
2023-01-18T09:25:18.142Z,0.40
2023-01-18T09:27:46.778Z,0.40
2023-01-18T09:30:16.483Z,0.50
2023-01-18T09:32:44.312Z,0.50
2023-01-18T09:35:18.833Z,0.50
2023-01-18T09:37:47.205Z,0.60
2023-01-18T09:40:20.197Z,0.60
2023-01-18T09:42:51.725Z,0.70
2023-01-18T09:45:25.113Z,0.80
2023-01-18T09:48:05.180Z,0.90
2023-01-18T09:50:40.469Z,0.90
2023-01-18T09:53:22.112Z,0.90
2023-01-18T09:55:56.953Z,1.00
2023-01-18T09:58:49.218Z,1.00
2023-01-18T10:01:22.483Z,1.00
2023-01-18T10:04:24.604Z,1.00
2023-01-18T10:07:01.647Z,1.10
2023-01-18T10:09:46.368Z,1.20
2023-01-18T10:12:41.085Z,1.30
2023-01-18T10:15:17.790Z,1.30
2023-01-18T10:17:46.386Z,1.40
2023-01-18T10:20:41.110Z,1.30
2023-01-18T10:23:53.063Z,1.40
2023-01-18T10:26:29.226Z,1.50
2023-01-18T10:29:21.666Z,1.60
2023-01-18T10:32:05.144Z,1.60
2023-01-18T10:34:39.465Z,1.70
2023-01-18T10:37:14.732Z,1.70
2023-01-18T10:39:55.003Z,1.90
2023-01-18T10:42:27.252Z,2.00
2023-01-18T10:44:54.802Z,2.20
2023-01-18T10:47:22.203Z,2.20
2023-01-18T10:49:57.023Z,2.30
2023-01-18T10:52:31.881Z,2.30
2023-01-18T10:55:07.673Z,2.30
2023-01-18T10:57:43.265Z,2.30
2023-01-18T11:00:22.141Z,2.30
2023-01-18T11:02:51.906Z,2.30
2023-01-18T11:05:33.272Z,2.40
2023-01-18T11:08:32.832Z,2.40
2023-01-18T11:11:08.848Z,2.50
2023-01-18T11:13:43.554Z,2.60
2023-01-18T11:16:13.577Z,2.60
2023-01-18T11:19:04.451Z,2.70
2023-01-18T11:21:53.879Z,2.70
2023-01-18T11:24:32.379Z,2.80
2023-01-18T11:27:24.050Z,2.80
2023-01-18T11:29:52.016Z,2.90
2023-01-18T11:32:29.201Z,2.90
2023-01-18T11:35:02.914Z,2.90
2023-01-18T11:37:36.232Z,3.00
2023-01-18T11:40:28.113Z,3.10
2023-01-18T11:43:04.369Z,3.10
2023-01-18T11:46:00.566Z,3.20
2023-01-18T11:48:34.074Z,3.20
2023-01-18T11:51:27.634Z,3.20
2023-01-18T11:54:02.633Z,3.30
2023-01-18T11:56:42.016Z,3.40
2023-01-18T11:59:33.988Z,3.50
2023-01-18T12:02:32.413Z,3.50
2023-01-18T12:05:28.321Z,3.60
2023-01-18T12:08:20.616Z,3.70
2023-01-18T12:11:13.528Z,3.70
2023-01-18T12:14:25.201Z,3.70
2023-01-18T12:16:58.311Z,3.80
2023-01-18T12:19:41.769Z,3.80
2023-01-18T12:22:31.171Z,3.90
2023-01-18T12:25:23.725Z,4.00
2023-01-18T12:28:08.562Z,4.00
2023-01-18T12:31:03.089Z,4.20
2023-01-18T12:33:46.689Z,4.70
2023-01-18T12:36:27.427Z,5.40
2023-01-18T12:38:56.399Z,5.80
2023-01-18T12:41:35.092Z,5.70
2023-01-18T12:44:15.784Z,6.10
2023-01-18T12:46:52.185Z,6.10
2023-01-18T12:49:21.771Z,5.90
2023-01-18T12:51:53.061Z,5.60
2023-01-18T12:54:30.672Z,5.50
2023-01-18T12:57:00.093Z,6.20
2023-01-18T12:59:40.743Z,6.60
2023-01-18T13:02:36.841Z,6.40
2023-01-18T13:05:04.282Z,6.60
2023-01-18T13:07:57.113Z,7.00
2023-01-18T13:10:27.311Z,7.00
2023-01-18T13:12:57.174Z,7.10
2023-01-18T13:15:35.864Z,7.90
2023-01-18T13:18:26.509Z,7.80
2023-01-18T13:21:18.238Z,8.40
2023-01-18T13:23:59.751Z,8.40
2023-01-18T13:26:30.589Z,8.40
2023-01-18T13:29:17.589Z,7.90
2023-01-18T13:31:45.078Z,7.70
2023-01-18T13:34:28.848Z,7.00
2023-01-18T13:37:12.916Z,6.30
2023-01-18T13:39:47.581Z,6.00
2023-01-18T13:42:20.690Z,6.00
2023-01-18T13:44:50.123Z,5.90
2023-01-18T13:47:35.953Z,5.70
2023-01-18T13:50:05.254Z,5.60
2023-01-18T13:52:35.551Z,5.50
2023-01-18T13:55:24.320Z,5.40
2023-01-18T13:57:55.650Z,5.30
2023-01-18T14:00:26.827Z,5.30
2023-01-18T14:03:02.214Z,5.30
2023-01-18T14:05:38.740Z,5.20
2023-01-18T14:08:06.425Z,5.20
2023-01-18T14:10:39.227Z,5.10
2023-01-18T14:13:08.702Z,5.00
2023-01-18T14:15:53.597Z,5.10
2023-01-18T14:18:24.736Z,5.10
2023-01-18T14:21:02.134Z,5.10
2023-01-18T14:23:33.770Z,5.10
2023-01-18T14:26:13.749Z,5.10
2023-01-18T14:28:54.335Z,5.10
2023-01-18T14:31:29.504Z,5.00
2023-01-18T14:33:56.994Z,5.00
2023-01-18T14:36:28.973Z,5.00
2023-01-18T14:39:12.792Z,5.00
2023-01-18T14:41:45.866Z,5.00
2023-01-18T14:44:21.234Z,5.20
2023-01-18T14:46:59.051Z,5.10
2023-01-18T14:49:31.067Z,5.10
2023-01-18T14:51:59.385Z,5.10
2023-01-18T14:54:26.950Z,5.10
2023-01-18T14:57:03.226Z,5.10
2023-01-18T14:59:32.088Z,5.10
2023-01-18T15:02:02.244Z,5.00
2023-01-18T15:04:32.961Z,5.10
2023-01-18T15:07:13.700Z,5.10
2023-01-18T15:09:44.240Z,5.10
2023-01-18T15:12:16.936Z,5.10
2023-01-18T15:14:47.713Z,5.10
2023-01-18T15:17:22.505Z,5.00
2023-01-18T15:19:54.318Z,5.00
2023-01-18T15:22:31.817Z,5.10
2023-01-18T15:25:00.332Z,5.00
2023-01-18T15:27:31.686Z,4.90
2023-01-18T15:30:01.055Z,4.90
2023-01-18T15:32:33.207Z,5.00
2023-01-18T15:35:01.628Z,4.90
2023-01-18T15:37:33.710Z,4.90
2023-01-18T15:40:05.880Z,4.80
2023-01-18T15:43:04.284Z,4.70
2023-01-18T15:45:33.449Z,4.70
2023-01-18T15:48:09.591Z,4.80
2023-01-18T15:50:49.248Z,4.80
2023-01-18T15:53:32.024Z,4.70
2023-01-18T15:56:05.934Z,4.70
2023-01-18T15:58:42.710Z,4.70
2023-01-18T16:01:13.737Z,4.60
2023-01-18T16:03:55.652Z,4.60
2023-01-18T16:06:23.389Z,4.60
2023-01-18T16:09:11.844Z,4.60
2023-01-18T16:11:56.954Z,4.60
2023-01-18T16:14:28.246Z,4.60
2023-01-18T16:17:05.904Z,4.50
2023-01-18T16:19:40.365Z,4.40
2023-01-18T16:22:21.966Z,4.30
2023-01-18T16:24:57.672Z,4.40
2023-01-18T16:27:27.500Z,4.40
2023-01-18T16:30:05.553Z,4.40
2023-01-18T16:32:35.818Z,4.30
2023-01-18T16:35:13.966Z,4.30
2023-01-18T16:37:42.023Z,4.20
2023-01-18T16:40:12.395Z,4.20
2023-01-18T16:43:04.873Z,4.20
2023-01-18T16:45:37.939Z,4.10
2023-01-18T16:48:06.031Z,4.10
2023-01-18T16:50:33.585Z,4.20
2023-01-18T16:53:01.119Z,4.10
2023-01-18T16:55:28.536Z,4.10
2023-01-18T16:57:55.939Z,4.00
2023-01-18T17:00:26.921Z,4.00
2023-01-18T17:02:54.411Z,3.90
2023-01-18T17:05:22.067Z,3.90
2023-01-18T17:07:50.712Z,3.80
2023-01-18T17:10:38.221Z,3.80
2023-01-18T17:13:05.671Z,3.80
2023-01-18T17:15:34.758Z,3.90
2023-01-18T17:18:06.412Z,3.80
2023-01-18T17:20:35.693Z,3.70
2023-01-18T17:23:03.527Z,3.70
2023-01-18T17:25:31.055Z,3.70
2023-01-18T17:27:58.783Z,3.70
2023-01-18T17:30:26.604Z,3.80
2023-01-18T17:32:54.141Z,3.70
2023-01-18T17:35:23.262Z,3.70
2023-01-18T17:37:57.409Z,3.70
2023-01-18T17:40:39.951Z,3.70
2023-01-18T17:43:28.490Z,3.70
2023-01-18T17:46:02.927Z,3.80
2023-01-18T17:48:30.450Z,3.80
2023-01-18T17:50:58.595Z,3.70
2023-01-18T17:53:26.377Z,3.60
2023-01-18T17:55:53.810Z,3.60
2023-01-18T17:58:21.413Z,3.50
2023-01-18T18:00:48.805Z,3.60
2023-01-18T18:03:16.478Z,3.60
2023-01-18T18:05:45.293Z,3.60
2023-01-18T18:08:12.735Z,3.60
2023-01-18T18:10:43.429Z,3.50
2023-01-18T18:13:10.897Z,3.50
2023-01-18T18:15:38.370Z,3.50
2023-01-18T18:18:12.266Z,3.60
2023-01-18T18:20:50.993Z,3.70
2023-01-18T18:23:18.338Z,3.60
2023-01-18T18:25:47.513Z,3.50
2023-01-18T18:28:14.863Z,3.50
2023-01-18T18:30:45.439Z,3.40
2023-01-18T18:33:12.941Z,3.40
2023-01-18T18:35:40.545Z,3.40
2023-01-18T18:38:08.066Z,3.40
2023-01-18T18:40:35.408Z,3.40
2023-01-18T18:43:03.304Z,3.40
2023-01-18T18:45:31.884Z,3.40
2023-01-18T18:47:59.696Z,3.40
2023-01-18T18:50:27.835Z,3.30
2023-01-18T18:52:55.164Z,3.30
2023-01-18T18:55:23.598Z,3.30
2023-01-18T18:57:51.291Z,3.30
2023-01-18T19:00:19.131Z,3.30
2023-01-18T19:02:46.501Z,3.30
2023-01-18T19:05:13.929Z,3.20
2023-01-18T19:07:42.531Z,3.20
2023-01-18T19:10:11.591Z,3.20
2023-01-18T19:12:39.091Z,3.20
2023-01-18T19:15:07.193Z,3.20
2023-01-18T19:17:34.596Z,3.20
2023-01-18T19:20:01.965Z,3.20
2023-01-18T19:22:29.824Z,3.20
2023-01-18T19:24:57.295Z,3.20
2023-01-18T19:27:24.732Z,3.10
2023-01-18T19:29:53.406Z,3.10
2023-01-18T19:32:20.910Z,3.10
2023-01-18T19:34:48.251Z,3.10
2023-01-18T19:37:15.703Z,3.10
2023-01-18T19:39:43.142Z,3.00
2023-01-18T19:42:10.531Z,3.00
2023-01-18T19:44:37.924Z,3.00
2023-01-18T19:47:05.313Z,3.00
2023-01-18T19:49:32.655Z,3.00
2023-01-18T19:51:59.985Z,3.00
2023-01-18T19:54:27.529Z,2.90
2023-01-18T19:56:54.896Z,2.90
2023-01-18T19:59:22.506Z,2.90
2023-01-18T20:01:51.711Z,2.90
2023-01-18T20:04:19.414Z,2.90
2023-01-18T20:15:00.196Z,3.00
2023-01-18T20:17:28.168Z,2.90
2023-01-18T20:19:55.968Z,2.90
2023-01-18T20:22:23.868Z,2.90
2023-01-18T20:24:51.553Z,2.80
2023-01-18T20:27:19.514Z,2.80
2023-01-18T20:29:46.852Z,2.90
2023-01-18T20:32:17.365Z,2.90
2023-01-18T20:34:48.581Z,2.90
2023-01-18T20:37:16.510Z,2.90
2023-01-18T20:39:43.801Z,2.90
2023-01-18T20:42:11.090Z,2.90
2023-01-18T20:44:38.769Z,2.90
2023-01-18T20:47:06.558Z,2.80
2023-01-18T20:49:38.710Z,2.90
2023-01-18T20:52:07.731Z,2.90
2023-01-18T20:54:36.672Z,2.80
2023-01-18T20:57:05.474Z,2.80
2023-01-18T20:59:33.387Z,2.80
2023-01-18T21:02:01.075Z,2.80
2023-01-18T21:04:29.007Z,2.70
2023-01-18T21:06:59.311Z,2.70
2023-01-18T21:09:26.948Z,2.70
2023-01-18T21:11:54.453Z,2.60
2023-01-18T21:14:22.087Z,2.70
2023-01-18T21:16:49.723Z,2.70
2023-01-18T21:19:18.254Z,2.70
2023-01-18T21:21:45.656Z,2.70
2023-01-18T21:24:13.338Z,2.70
2023-01-18T21:26:40.856Z,2.60
2023-01-18T21:29:08.456Z,2.60
2023-01-18T21:31:36.111Z,2.50
2023-01-18T21:34:03.551Z,2.60
2023-01-18T21:36:30.934Z,2.50
2023-01-18T21:38:58.304Z,2.50
2023-01-18T21:41:44.518Z,2.50
2023-01-18T21:44:31.300Z,2.50
2023-01-18T21:46:59.062Z,2.50
2023-01-18T21:54:15.911Z,2.50
2023-01-18T21:56:45.395Z,2.50
2023-01-18T21:59:13.713Z,2.50
2023-01-18T22:01:44.250Z,2.50
2023-01-18T22:04:33.122Z,2.50
2023-01-18T22:07:00.964Z,2.50
2023-01-18T22:09:29.971Z,2.50
2023-01-18T22:11:58.498Z,2.50
2023-01-18T22:14:26.664Z,2.40
2023-01-18T22:16:54.293Z,2.50
2023-01-18T22:19:22.006Z,2.50
2023-01-18T22:21:49.756Z,2.40
2023-01-18T22:24:18.161Z,2.40
2023-01-18T22:26:46.150Z,2.30
2023-01-18T22:29:13.843Z,2.30
2023-01-18T22:31:41.711Z,2.30
2023-01-18T22:34:15.799Z,2.40
2023-01-18T22:36:43.461Z,2.30
2023-01-18T22:39:12.130Z,2.30
2023-01-18T22:41:40.719Z,2.40
2023-01-18T22:44:08.527Z,2.30
2023-01-18T22:46:36.116Z,2.40
2023-01-18T22:49:03.656Z,2.30
2023-01-18T22:56:35.607Z,2.40
2023-01-18T22:59:03.827Z,2.30
2023-01-18T23:06:04.941Z,2.20
2023-01-18T23:08:42.536Z,2.10
2023-01-18T23:11:15.143Z,2.10
2023-01-18T23:14:05.296Z,2.10
2023-01-18T23:16:51.937Z,2.10
2023-01-18T23:19:20.254Z,2.00
2023-01-18T23:21:48.704Z,2.10
2023-01-18T23:24:16.333Z,2.00
2023-01-18T23:26:43.867Z,2.00
2023-01-18T23:29:11.453Z,2.00
2023-01-18T23:31:38.948Z,2.00
2023-01-18T23:34:06.710Z,2.00
2023-01-18T23:36:34.312Z,2.20
2023-01-18T23:39:20.046Z,2.10
2023-01-18T23:42:06.254Z,2.00
2023-01-18T23:44:51.991Z,1.90
2023-01-18T23:47:38.399Z,1.90
2023-01-18T23:50:24.749Z,1.90
2023-01-18T23:53:10.911Z,1.90
2023-01-18T23:55:38.351Z,1.90
2023-01-18T23:58:05.653Z,1.90
